sensor_id;sensor_type;location;lat;lon;timestamp;temperature;humidity
15947;DHT22;8072;52.554;7.966;2023-07-13T00:00:12;15.60;99.90
15947;DHT22;8072;52.554;7.966;2023-07-13T00:02:41;15.60;99.90
15947;DHT22;8072;52.554;7.966;2023-07-13T00:05:07;15.50;99.90
15947;DHT22;8072;52.554;7.966;2023-07-13T00:07:33;15.50;99.90
15947;DHT22;8072;52.554;7.966;2023-07-13T00:09:58;15.50;99.90
15947;DHT22;8072;52.554;7.966;2023-07-13T00:12:30;15.40;99.90
15947;DHT22;8072;52.554;7.966;2023-07-13T00:15:01;15.40;99.90
15947;DHT22;8072;52.554;7.966;2023-07-13T00:17:28;15.30;99.90
15947;DHT22;8072;52.554;7.966;2023-07-13T00:19:55;15.30;99.90
15947;DHT22;8072;52.554;7.966;2023-07-13T00:22:22;15.20;99.90
15947;DHT22;8072;52.554;7.966;2023-07-13T00:24:51;15.30;99.90
15947;DHT22;8072;52.554;7.966;2023-07-13T00:27:18;15.20;99.90
15947;DHT22;8072;52.554;7.966;2023-07-13T00:29:44;15.10;99.90
15947;DHT22;8072;52.554;7.966;2023-07-13T00:32:10;15.10;99.90
15947;DHT22;8072;52.554;7.966;2023-07-13T00:34:38;15.10;99.90
15947;DHT22;8072;52.554;7.966;2023-07-13T00:37:05;15.00;99.90
15947;DHT22;8072;52.554;7.966;2023-07-13T00:39:33;15.00;99.90
15947;DHT22;8072;52.554;7.966;2023-07-13T00:42:00;15.00;99.90
15947;DHT22;8072;52.554;7.966;2023-07-13T00:44:26;15.00;99.90
15947;DHT22;8072;52.554;7.966;2023-07-13T00:46:52;14.90;99.90
15947;DHT22;8072;52.554;7.966;2023-07-13T00:49:23;14.90;99.90
15947;DHT22;8072;52.554;7.966;2023-07-13T00:51:55;14.90;99.90
15947;DHT22;8072;52.554;7.966;2023-07-13T00:54:29;14.90;99.90
15947;DHT22;8072;52.554;7.966;2023-07-13T00:57:00;14.90;99.90
15947;DHT22;8072;52.554;7.966;2023-07-13T00:59:26;14.90;99.90
15947;DHT22;8072;52.554;7.966;2023-07-13T01:01:52;14.80;99.90
15947;DHT22;8072;52.554;7.966;2023-07-13T01:04:18;14.80;99.90
15947;DHT22;8072;52.554;7.966;2023-07-13T01:06:45;14.80;99.90
15947;DHT22;8072;52.554;7.966;2023-07-13T01:09:13;14.80;99.90
15947;DHT22;8072;52.554;7.966;2023-07-13T01:11:40;14.70;99.90
15947;DHT22;8072;52.554;7.966;2023-07-13T01:14:07;14.70;99.90
15947;DHT22;8072;52.554;7.966;2023-07-13T01:16:35;14.70;99.90
15947;DHT22;8072;52.554;7.966;2023-07-13T01:19:09;14.70;99.90
15947;DHT22;8072;52.554;7.966;2023-07-13T01:21:38;14.70;99.90
15947;DHT22;8072;52.554;7.966;2023-07-13T01:24:08;14.60;99.90
15947;DHT22;8072;52.554;7.966;2023-07-13T01:26:36;14.70;99.90
15947;DHT22;8072;52.554;7.966;2023-07-13T01:29:01;14.60;99.90
15947;DHT22;8072;52.554;7.966;2023-07-13T01:31:28;14.60;99.90
15947;DHT22;8072;52.554;7.966;2023-07-13T01:33:53;14.60;99.90
15947;DHT22;8072;52.554;7.966;2023-07-13T01:36:19;14.70;99.90
15947;DHT22;8072;52.554;7.966;2023-07-13T01:38:46;14.60;99.90
15947;DHT22;8072;52.554;7.966;2023-07-13T01:41:12;14.70;99.90
15947;DHT22;8072;52.554;7.966;2023-07-13T01:43:38;14.60;99.90
15947;DHT22;8072;52.554;7.966;2023-07-13T01:46:04;14.60;99.90
15947;DHT22;8072;52.554;7.966;2023-07-13T01:48:30;14.50;99.90
15947;DHT22;8072;52.554;7.966;2023-07-13T01:50:56;14.50;99.90
15947;DHT22;8072;52.554;7.966;2023-07-13T01:53:22;14.60;99.90
15947;DHT22;8072;52.554;7.966;2023-07-13T01:55:47;14.60;99.90
15947;DHT22;8072;52.554;7.966;2023-07-13T01:58:13;14.50;99.90
15947;DHT22;8072;52.554;7.966;2023-07-13T02:00:39;14.60;99.90
15947;DHT22;8072;52.554;7.966;2023-07-13T02:03:05;14.50;99.90
15947;DHT22;8072;52.554;7.966;2023-07-13T02:05:30;14.50;99.90
15947;DHT22;8072;52.554;7.966;2023-07-13T02:07:56;14.50;99.90
15947;DHT22;8072;52.554;7.966;2023-07-13T02:10:22;14.50;99.90
15947;DHT22;8072;52.554;7.966;2023-07-13T02:12:48;14.50;99.90
15947;DHT22;8072;52.554;7.966;2023-07-13T02:15:16;14.50;99.90
15947;DHT22;8072;52.554;7.966;2023-07-13T02:17:42;14.50;99.90
15947;DHT22;8072;52.554;7.966;2023-07-13T02:20:08;14.50;99.90
15947;DHT22;8072;52.554;7.966;2023-07-13T02:22:35;14.50;99.90
15947;DHT22;8072;52.554;7.966;2023-07-13T02:25:01;14.50;99.90
15947;DHT22;8072;52.554;7.966;2023-07-13T02:27:28;14.50;99.90
15947;DHT22;8072;52.554;7.966;2023-07-13T02:29:54;14.50;99.90
15947;DHT22;8072;52.554;7.966;2023-07-13T02:32:19;14.60;99.90
15947;DHT22;8072;52.554;7.966;2023-07-13T02:34:45;14.60;99.90
15947;DHT22;8072;52.554;7.966;2023-07-13T02:37:11;14.50;99.90
15947;DHT22;8072;52.554;7.966;2023-07-13T02:39:37;14.50;99.90
15947;DHT22;8072;52.554;7.966;2023-07-13T02:42:03;14.60;99.90
15947;DHT22;8072;52.554;7.966;2023-07-13T02:44:29;14.60;99.90
15947;DHT22;8072;52.554;7.966;2023-07-13T02:46:55;14.60;99.90
15947;DHT22;8072;52.554;7.966;2023-07-13T02:49:21;14.50;99.90
15947;DHT22;8072;52.554;7.966;2023-07-13T02:51:47;14.50;99.90
15947;DHT22;8072;52.554;7.966;2023-07-13T02:54:12;14.50;99.90
15947;DHT22;8072;52.554;7.966;2023-07-13T02:56:39;14.50;99.90
15947;DHT22;8072;52.554;7.966;2023-07-13T02:59:05;14.50;99.90
15947;DHT22;8072;52.554;7.966;2023-07-13T03:01:31;14.50;99.90
15947;DHT22;8072;52.554;7.966;2023-07-13T03:04:01;14.50;99.90
15947;DHT22;8072;52.554;7.966;2023-07-13T03:06:27;14.50;99.90
15947;DHT22;8072;52.554;7.966;2023-07-13T03:08:56;14.50;99.90
15947;DHT22;8072;52.554;7.966;2023-07-13T03:11:22;14.50;99.90
15947;DHT22;8072;52.554;7.966;2023-07-13T03:13:47;14.50;99.90
15947;DHT22;8072;52.554;7.966;2023-07-13T03:16:15;14.50;99.90
15947;DHT22;8072;52.554;7.966;2023-07-13T03:18:41;14.60;99.90
15947;DHT22;8072;52.554;7.966;2023-07-13T03:21:07;14.50;99.90
15947;DHT22;8072;52.554;7.966;2023-07-13T03:23:33;14.50;99.90
15947;DHT22;8072;52.554;7.966;2023-07-13T03:28:31;14.50;99.90
15947;DHT22;8072;52.554;7.966;2023-07-13T03:31:06;14.50;99.90
15947;DHT22;8072;52.554;7.966;2023-07-13T03:33:32;14.50;99.90
15947;DHT22;8072;52.554;7.966;2023-07-13T03:35:58;14.50;99.90
15947;DHT22;8072;52.554;7.966;2023-07-13T03:38:24;14.50;99.90
15947;DHT22;8072;52.554;7.966;2023-07-13T03:40:52;14.50;99.90
15947;DHT22;8072;52.554;7.966;2023-07-13T03:43:18;14.50;99.90
15947;DHT22;8072;52.554;7.966;2023-07-13T03:45:46;14.50;99.90
15947;DHT22;8072;52.554;7.966;2023-07-13T03:48:13;14.60;99.90
15947;DHT22;8072;52.554;7.966;2023-07-13T03:50:38;14.60;99.90
15947;DHT22;8072;52.554;7.966;2023-07-13T03:53:04;14.60;99.90
15947;DHT22;8072;52.554;7.966;2023-07-13T03:55:30;14.60;99.90
15947;DHT22;8072;52.554;7.966;2023-07-13T03:58:06;14.60;99.90
15947;DHT22;8072;52.554;7.966;2023-07-13T04:00:47;14.60;99.90
15947;DHT22;8072;52.554;7.966;2023-07-13T04:03:12;14.70;99.90
15947;DHT22;8072;52.554;7.966;2023-07-13T04:05:38;14.70;99.90
15947;DHT22;8072;52.554;7.966;2023-07-13T04:08:06;14.70;99.90
15947;DHT22;8072;52.554;7.966;2023-07-13T04:10:32;14.70;99.90
15947;DHT22;8072;52.554;7.966;2023-07-13T04:12:57;14.60;99.90
15947;DHT22;8072;52.554;7.966;2023-07-13T04:15:23;14.60;99.90
15947;DHT22;8072;52.554;7.966;2023-07-13T04:17:49;14.60;99.90
15947;DHT22;8072;52.554;7.966;2023-07-13T04:20:15;14.60;99.90
15947;DHT22;8072;52.554;7.966;2023-07-13T04:22:40;14.70;99.90
15947;DHT22;8072;52.554;7.966;2023-07-13T04:25:06;14.70;99.90
15947;DHT22;8072;52.554;7.966;2023-07-13T04:27:32;14.70;99.90
15947;DHT22;8072;52.554;7.966;2023-07-13T04:29:58;14.70;99.90
15947;DHT22;8072;52.554;7.966;2023-07-13T04:32:23;14.80;99.90
15947;DHT22;8072;52.554;7.966;2023-07-13T04:34:49;14.70;99.90
15947;DHT22;8072;52.554;7.966;2023-07-13T04:37:19;14.80;99.90
15947;DHT22;8072;52.554;7.966;2023-07-13T04:39:45;14.70;99.90
15947;DHT22;8072;52.554;7.966;2023-07-13T04:42:11;14.70;99.90
15947;DHT22;8072;52.554;7.966;2023-07-13T04:44:37;14.70;99.90
15947;DHT22;8072;52.554;7.966;2023-07-13T04:47:03;14.70;99.90
15947;DHT22;8072;52.554;7.966;2023-07-13T04:49:29;14.80;99.90
15947;DHT22;8072;52.554;7.966;2023-07-13T04:51:55;14.80;99.90
15947;DHT22;8072;52.554;7.966;2023-07-13T04:54:21;14.80;99.90
15947;DHT22;8072;52.554;7.966;2023-07-13T04:56:47;14.80;99.90
15947;DHT22;8072;52.554;7.966;2023-07-13T04:59:13;14.70;99.90
15947;DHT22;8072;52.554;7.966;2023-07-13T05:01:39;14.70;99.90
15947;DHT22;8072;52.554;7.966;2023-07-13T05:04:06;14.70;99.90
15947;DHT22;8072;52.554;7.966;2023-07-13T05:06:32;14.70;99.90
15947;DHT22;8072;52.554;7.966;2023-07-13T05:08:57;14.80;99.90
15947;DHT22;8072;52.554;7.966;2023-07-13T05:11:23;14.90;99.90
15947;DHT22;8072;52.554;7.966;2023-07-13T05:13:49;14.90;99.90
15947;DHT22;8072;52.554;7.966;2023-07-13T05:16:15;14.90;99.90
15947;DHT22;8072;52.554;7.966;2023-07-13T05:18:41;15.00;99.90
15947;DHT22;8072;52.554;7.966;2023-07-13T05:21:09;15.10;99.90
15947;DHT22;8072;52.554;7.966;2023-07-13T05:23:35;15.10;99.90
15947;DHT22;8072;52.554;7.966;2023-07-13T05:26:02;15.10;99.90
15947;DHT22;8072;52.554;7.966;2023-07-13T05:28:28;15.10;99.90
15947;DHT22;8072;52.554;7.966;2023-07-13T05:30:54;15.20;99.90
15947;DHT22;8072;52.554;7.966;2023-07-13T05:33:20;15.20;99.90
15947;DHT22;8072;52.554;7.966;2023-07-13T05:35:47;15.20;99.90
15947;DHT22;8072;52.554;7.966;2023-07-13T05:38:13;15.20;99.90
15947;DHT22;8072;52.554;7.966;2023-07-13T05:40:39;15.30;99.90
15947;DHT22;8072;52.554;7.966;2023-07-13T05:43:05;15.30;99.90
15947;DHT22;8072;52.554;7.966;2023-07-13T05:45:30;15.30;99.90
15947;DHT22;8072;52.554;7.966;2023-07-13T05:47:56;15.30;99.90
15947;DHT22;8072;52.554;7.966;2023-07-13T05:50:22;15.40;99.90
15947;DHT22;8072;52.554;7.966;2023-07-13T05:52:48;15.40;99.90
15947;DHT22;8072;52.554;7.966;2023-07-13T05:55:14;15.50;99.90
15947;DHT22;8072;52.554;7.966;2023-07-13T05:57:40;15.60;99.90
15947;DHT22;8072;52.554;7.966;2023-07-13T06:00:06;15.60;99.90
15947;DHT22;8072;52.554;7.966;2023-07-13T06:02:32;15.70;99.90
15947;DHT22;8072;52.554;7.966;2023-07-13T06:04:57;15.70;99.90
15947;DHT22;8072;52.554;7.966;2023-07-13T06:07:23;15.80;99.90
15947;DHT22;8072;52.554;7.966;2023-07-13T06:09:49;15.90;99.90
15947;DHT22;8072;52.554;7.966;2023-07-13T06:12:15;15.90;99.90
15947;DHT22;8072;52.554;7.966;2023-07-13T06:14:41;16.00;99.90
15947;DHT22;8072;52.554;7.966;2023-07-13T06:17:07;16.10;99.90
15947;DHT22;8072;52.554;7.966;2023-07-13T06:19:33;16.20;99.90
15947;DHT22;8072;52.554;7.966;2023-07-13T06:21:59;16.20;99.90
15947;DHT22;8072;52.554;7.966;2023-07-13T06:24:25;16.20;99.90
15947;DHT22;8072;52.554;7.966;2023-07-13T06:26:51;16.30;99.90
15947;DHT22;8072;52.554;7.966;2023-07-13T06:29:17;16.30;99.90
15947;DHT22;8072;52.554;7.966;2023-07-13T06:31:43;16.30;99.90
15947;DHT22;8072;52.554;7.966;2023-07-13T06:34:09;16.30;99.90
15947;DHT22;8072;52.554;7.966;2023-07-13T06:36:34;16.30;99.90
15947;DHT22;8072;52.554;7.966;2023-07-13T06:39:02;16.40;99.90
15947;DHT22;8072;52.554;7.966;2023-07-13T06:41:28;16.50;99.90
15947;DHT22;8072;52.554;7.966;2023-07-13T06:43:54;16.50;99.90
15947;DHT22;8072;52.554;7.966;2023-07-13T06:46:22;16.50;99.90
15947;DHT22;8072;52.554;7.966;2023-07-13T06:48:47;16.60;99.90
15947;DHT22;8072;52.554;7.966;2023-07-13T06:51:13;16.70;99.90
15947;DHT22;8072;52.554;7.966;2023-07-13T06:53:39;16.70;99.90
15947;DHT22;8072;52.554;7.966;2023-07-13T06:56:05;16.80;99.90
15947;DHT22;8072;52.554;7.966;2023-07-13T06:58:31;16.80;99.90
15947;DHT22;8072;52.554;7.966;2023-07-13T07:00:57;16.90;99.90
15947;DHT22;8072;52.554;7.966;2023-07-13T07:03:22;16.90;99.90
15947;DHT22;8072;52.554;7.966;2023-07-13T07:05:49;17.00;99.90
15947;DHT22;8072;52.554;7.966;2023-07-13T07:08:14;17.00;99.90
15947;DHT22;8072;52.554;7.966;2023-07-13T07:10:40;17.10;99.90
15947;DHT22;8072;52.554;7.966;2023-07-13T07:13:06;17.10;99.90
15947;DHT22;8072;52.554;7.966;2023-07-13T07:15:34;17.20;99.90
15947;DHT22;8072;52.554;7.966;2023-07-13T07:18:00;17.30;99.90
15947;DHT22;8072;52.554;7.966;2023-07-13T07:20:25;17.40;99.90
15947;DHT22;8072;52.554;7.966;2023-07-13T07:22:52;17.40;99.90
15947;DHT22;8072;52.554;7.966;2023-07-13T07:25:18;17.40;99.90
15947;DHT22;8072;52.554;7.966;2023-07-13T07:27:44;17.40;99.90
15947;DHT22;8072;52.554;7.966;2023-07-13T07:30:10;17.40;99.90
15947;DHT22;8072;52.554;7.966;2023-07-13T07:32:36;17.40;99.90
15947;DHT22;8072;52.554;7.966;2023-07-13T07:35:03;17.50;99.90
15947;DHT22;8072;52.554;7.966;2023-07-13T07:37:28;17.60;99.90
15947;DHT22;8072;52.554;7.966;2023-07-13T07:39:54;17.60;99.90
15947;DHT22;8072;52.554;7.966;2023-07-13T07:42:20;17.70;99.90
15947;DHT22;8072;52.554;7.966;2023-07-13T07:44:46;17.80;99.90
15947;DHT22;8072;52.554;7.966;2023-07-13T07:47:12;18.00;99.90
15947;DHT22;8072;52.554;7.966;2023-07-13T07:49:37;18.00;99.90
15947;DHT22;8072;52.554;7.966;2023-07-13T07:52:04;18.10;99.90
15947;DHT22;8072;52.554;7.966;2023-07-13T07:54:30;18.10;99.90
15947;DHT22;8072;52.554;7.966;2023-07-13T07:56:56;18.20;99.90
15947;DHT22;8072;52.554;7.966;2023-07-13T07:59:22;18.30;99.90
15947;DHT22;8072;52.554;7.966;2023-07-13T08:01:47;18.40;99.90
15947;DHT22;8072;52.554;7.966;2023-07-13T08:04:16;18.40;99.90
15947;DHT22;8072;52.554;7.966;2023-07-13T08:06:42;18.40;99.90
15947;DHT22;8072;52.554;7.966;2023-07-13T08:09:07;18.40;99.90
15947;DHT22;8072;52.554;7.966;2023-07-13T08:11:34;18.40;99.90
15947;DHT22;8072;52.554;7.966;2023-07-13T08:13:59;18.40;99.90
15947;DHT22;8072;52.554;7.966;2023-07-13T08:16:26;18.60;99.90
15947;DHT22;8072;52.554;7.966;2023-07-13T08:18:52;18.70;99.90
15947;DHT22;8072;52.554;7.966;2023-07-13T08:21:18;18.80;99.90
15947;DHT22;8072;52.554;7.966;2023-07-13T08:23:47;18.80;99.90
15947;DHT22;8072;52.554;7.966;2023-07-13T08:26:12;18.90;99.90
15947;DHT22;8072;52.554;7.966;2023-07-13T08:28:38;18.90;99.90
15947;DHT22;8072;52.554;7.966;2023-07-13T08:31:06;19.00;99.90
15947;DHT22;8072;52.554;7.966;2023-07-13T08:33:36;19.00;99.90
15947;DHT22;8072;52.554;7.966;2023-07-13T08:36:02;19.10;99.90
15947;DHT22;8072;52.554;7.966;2023-07-13T08:38:28;19.00;99.90
15947;DHT22;8072;52.554;7.966;2023-07-13T08:40:56;19.10;99.90
15947;DHT22;8072;52.554;7.966;2023-07-13T08:43:27;19.10;99.90
15947;DHT22;8072;52.554;7.966;2023-07-13T08:48:26;19.20;99.90
15947;DHT22;8072;52.554;7.966;2023-07-13T08:51:31;19.20;99.90
15947;DHT22;8072;52.554;7.966;2023-07-13T08:54:02;19.20;99.90
15947;DHT22;8072;52.554;7.966;2023-07-13T08:56:30;19.10;99.90
15947;DHT22;8072;52.554;7.966;2023-07-13T08:59:01;19.00;99.90
15947;DHT22;8072;52.554;7.966;2023-07-13T09:02:02;19.10;99.90
15947;DHT22;8072;52.554;7.966;2023-07-13T09:04:46;19.20;99.90
15947;DHT22;8072;52.554;7.966;2023-07-13T09:10:28;19.50;99.90
15947;DHT22;8072;52.554;7.966;2023-07-13T09:15:45;19.60;99.90
15947;DHT22;8072;52.554;7.966;2023-07-13T09:18:25;19.70;99.90
15947;DHT22;8072;52.554;7.966;2023-07-13T09:20:56;19.80;99.90
15947;DHT22;8072;52.554;7.966;2023-07-13T09:23:26;19.90;99.90
15947;DHT22;8072;52.554;7.966;2023-07-13T09:28:45;20.30;99.90
15947;DHT22;8072;52.554;7.966;2023-07-13T09:31:32;20.30;99.90
15947;DHT22;8072;52.554;7.966;2023-07-13T09:34:00;20.30;99.90
15947;DHT22;8072;52.554;7.966;2023-07-13T09:36:27;20.30;99.90
15947;DHT22;8072;52.554;7.966;2023-07-13T09:41:47;20.40;99.90
15947;DHT22;8072;52.554;7.966;2023-07-13T09:44:18;20.30;99.90
15947;DHT22;8072;52.554;7.966;2023-07-13T09:46:47;20.40;99.90
15947;DHT22;8072;52.554;7.966;2023-07-13T09:49:18;20.50;99.90
15947;DHT22;8072;52.554;7.966;2023-07-13T09:51:44;20.60;99.90
15947;DHT22;8072;52.554;7.966;2023-07-13T09:54:21;20.80;99.90
15947;DHT22;8072;52.554;7.966;2023-07-13T09:56:47;20.80;99.90
15947;DHT22;8072;52.554;7.966;2023-07-13T09:59:20;20.90;99.90
15947;DHT22;8072;52.554;7.966;2023-07-13T10:01:46;21.10;99.90
15947;DHT22;8072;52.554;7.966;2023-07-13T10:04:17;21.10;99.90
15947;DHT22;8072;52.554;7.966;2023-07-13T10:06:44;21.10;99.90
15947;DHT22;8072;52.554;7.966;2023-07-13T10:09:17;21.10;99.90
15947;DHT22;8072;52.554;7.966;2023-07-13T10:11:44;21.20;99.90
15947;DHT22;8072;52.554;7.966;2023-07-13T10:14:18;21.20;99.90
15947;DHT22;8072;52.554;7.966;2023-07-13T10:16:46;21.40;99.90
15947;DHT22;8072;52.554;7.966;2023-07-13T10:24:33;21.50;99.90
15947;DHT22;8072;52.554;7.966;2023-07-13T10:29:34;21.60;99.90
15947;DHT22;8072;52.554;7.966;2023-07-13T10:32:01;21.70;99.90
15947;DHT22;8072;52.554;7.966;2023-07-13T10:34:27;21.70;99.90
15947;DHT22;8072;52.554;7.966;2023-07-13T10:36:53;21.60;99.90
15947;DHT22;8072;52.554;7.966;2023-07-13T10:39:21;21.60;99.90
15947;DHT22;8072;52.554;7.966;2023-07-13T10:42:00;21.70;99.90
15947;DHT22;8072;52.554;7.966;2023-07-13T10:44:30;21.70;99.90
15947;DHT22;8072;52.554;7.966;2023-07-13T10:47:02;21.70;99.90
15947;DHT22;8072;52.554;7.966;2023-07-13T10:49:31;21.70;99.90
15947;DHT22;8072;52.554;7.966;2023-07-13T10:51:58;21.90;99.90
15947;DHT22;8072;52.554;7.966;2023-07-13T10:54:31;22.00;99.90
15947;DHT22;8072;52.554;7.966;2023-07-13T10:57:20;21.90;99.90
15947;DHT22;8072;52.554;7.966;2023-07-13T11:00:17;21.60;99.90
15947;DHT22;8072;52.554;7.966;2023-07-13T11:02:43;21.70;99.90
15947;DHT22;8072;52.554;7.966;2023-07-13T11:07:56;22.10;99.90
15947;DHT22;8072;52.554;7.966;2023-07-13T11:10:51;22.20;99.90
15947;DHT22;8072;52.554;7.966;2023-07-13T11:13:36;22.40;99.90
15947;DHT22;8072;52.554;7.966;2023-07-13T11:16:13;22.30;99.90
15947;DHT22;8072;52.554;7.966;2023-07-13T11:21:32;20.90;99.90
15947;DHT22;8072;52.554;7.966;2023-07-13T11:31:52;18.30;99.90
15947;DHT22;8072;52.554;7.966;2023-07-13T11:34:26;17.80;99.90
15947;DHT22;8072;52.554;7.966;2023-07-13T11:36:53;17.30;99.90
15947;DHT22;8072;52.554;7.966;2023-07-13T11:39:35;17.00;99.90
15947;DHT22;8072;52.554;7.966;2023-07-13T11:42:21;16.80;99.90
15947;DHT22;8072;52.554;7.966;2023-07-13T11:44:49;16.60;99.90
15947;DHT22;8072;52.554;7.966;2023-07-13T11:47:20;16.50;99.90
15947;DHT22;8072;52.554;7.966;2023-07-13T11:49:52;16.40;99.90
15947;DHT22;8072;52.554;7.966;2023-07-13T11:52:22;16.40;99.90
15947;DHT22;8072;52.554;7.966;2023-07-13T11:54:51;16.40;99.90
15947;DHT22;8072;52.554;7.966;2023-07-13T11:57:37;16.40;99.90
15947;DHT22;8072;52.554;7.966;2023-07-13T12:00:18;16.40;99.90
15947;DHT22;8072;52.554;7.966;2023-07-13T12:02:47;16.50;99.90
15947;DHT22;8072;52.554;7.966;2023-07-13T12:05:18;16.40;99.90
15947;DHT22;8072;52.554;7.966;2023-07-13T12:07:46;16.40;99.90
15947;DHT22;8072;52.554;7.966;2023-07-13T12:12:55;16.20;99.90
15947;DHT22;8072;52.554;7.966;2023-07-13T12:15:23;16.20;99.90
15947;DHT22;8072;52.554;7.966;2023-07-13T12:17:49;16.20;99.90
15947;DHT22;8072;52.554;7.966;2023-07-13T12:20:25;16.20;99.90
15947;DHT22;8072;52.554;7.966;2023-07-13T12:22:52;16.00;99.90
15947;DHT22;8072;52.554;7.966;2023-07-13T12:25:19;16.00;99.90
15947;DHT22;8072;52.554;7.966;2023-07-13T12:27:50;15.90;99.90
15947;DHT22;8072;52.554;7.966;2023-07-13T12:30:36;15.90;99.90
15947;DHT22;8072;52.554;7.966;2023-07-13T12:33:07;15.80;99.90
15947;DHT22;8072;52.554;7.966;2023-07-13T12:35:47;15.70;99.90
15947;DHT22;8072;52.554;7.966;2023-07-13T12:38:15;15.70;99.90
15947;DHT22;8072;52.554;7.966;2023-07-13T12:40:41;15.70;99.90
15947;DHT22;8072;52.554;7.966;2023-07-13T12:43:12;15.60;99.90
15947;DHT22;8072;52.554;7.966;2023-07-13T12:45:38;15.70;99.90
15947;DHT22;8072;52.554;7.966;2023-07-13T12:48:13;15.70;99.90
15947;DHT22;8072;52.554;7.966;2023-07-13T12:50:42;15.90;99.90
15947;DHT22;8072;52.554;7.966;2023-07-13T12:53:17;16.10;99.90
15947;DHT22;8072;52.554;7.966;2023-07-13T12:58:28;16.80;99.90
15947;DHT22;8072;52.554;7.966;2023-07-13T13:00:57;17.10;99.90
15947;DHT22;8072;52.554;7.966;2023-07-13T13:08:25;17.90;99.90
15947;DHT22;8072;52.554;7.966;2023-07-13T13:10:51;18.00;99.90
15947;DHT22;8072;52.554;7.966;2023-07-13T13:13:17;18.30;99.90
15947;DHT22;8072;52.554;7.966;2023-07-13T13:15:43;18.40;99.90
15947;DHT22;8072;52.554;7.966;2023-07-13T13:18:29;18.50;99.90
15947;DHT22;8072;52.554;7.966;2023-07-13T13:20:54;18.40;99.90
15947;DHT22;8072;52.554;7.966;2023-07-13T13:23:20;18.30;99.90
15947;DHT22;8072;52.554;7.966;2023-07-13T13:25:49;18.30;99.90
15947;DHT22;8072;52.554;7.966;2023-07-13T13:28:19;18.40;99.90
15947;DHT22;8072;52.554;7.966;2023-07-13T13:30:46;18.50;99.90
15947;DHT22;8072;52.554;7.966;2023-07-13T13:33:15;18.50;99.90
15947;DHT22;8072;52.554;7.966;2023-07-13T13:35:41;18.40;99.90
15947;DHT22;8072;52.554;7.966;2023-07-13T13:38:14;18.40;99.90
15947;DHT22;8072;52.554;7.966;2023-07-13T13:40:44;18.40;99.90
15947;DHT22;8072;52.554;7.966;2023-07-13T13:43:15;18.40;99.90
15947;DHT22;8072;52.554;7.966;2023-07-13T13:45:45;18.30;99.90
15947;DHT22;8072;52.554;7.966;2023-07-13T13:48:24;18.30;99.90
15947;DHT22;8072;52.554;7.966;2023-07-13T13:50:56;18.20;99.90
15947;DHT22;8072;52.554;7.966;2023-07-13T13:53:22;18.00;99.90
15947;DHT22;8072;52.554;7.966;2023-07-13T13:55:49;18.00;99.90
15947;DHT22;8072;52.554;7.966;2023-07-13T13:58:15;18.00;99.90
15947;DHT22;8072;52.554;7.966;2023-07-13T14:00:41;17.90;99.90
15947;DHT22;8072;52.554;7.966;2023-07-13T14:03:19;17.90;99.90
15947;DHT22;8072;52.554;7.966;2023-07-13T14:05:46;17.90;99.90
15947;DHT22;8072;52.554;7.966;2023-07-13T14:08:16;17.80;99.90
15947;DHT22;8072;52.554;7.966;2023-07-13T14:10:44;17.80;99.90
15947;DHT22;8072;52.554;7.966;2023-07-13T14:13:22;17.80;99.90
15947;DHT22;8072;52.554;7.966;2023-07-13T14:15:52;17.80;99.90
15947;DHT22;8072;52.554;7.966;2023-07-13T14:18:18;17.90;99.90
15947;DHT22;8072;52.554;7.966;2023-07-13T14:20:45;17.90;99.90
15947;DHT22;8072;52.554;7.966;2023-07-13T14:23:13;17.90;99.90
15947;DHT22;8072;52.554;7.966;2023-07-13T14:25:39;17.90;99.90
15947;DHT22;8072;52.554;7.966;2023-07-13T14:28:24;18.00;99.90
15947;DHT22;8072;52.554;7.966;2023-07-13T14:30:51;18.00;99.90
15947;DHT22;8072;52.554;7.966;2023-07-13T14:33:17;18.00;99.90
15947;DHT22;8072;52.554;7.966;2023-07-13T14:35:42;18.00;99.90
15947;DHT22;8072;52.554;7.966;2023-07-13T14:38:13;18.10;99.90
15947;DHT22;8072;52.554;7.966;2023-07-13T14:40:41;18.10;99.90
15947;DHT22;8072;52.554;7.966;2023-07-13T14:43:11;18.10;99.90
15947;DHT22;8072;52.554;7.966;2023-07-13T14:45:41;18.10;99.90
15947;DHT22;8072;52.554;7.966;2023-07-13T14:48:17;18.20;99.90
15947;DHT22;8072;52.554;7.966;2023-07-13T14:50:44;18.20;99.90
15947;DHT22;8072;52.554;7.966;2023-07-13T14:53:12;18.20;99.90
15947;DHT22;8072;52.554;7.966;2023-07-13T14:55:38;18.30;99.90
15947;DHT22;8072;52.554;7.966;2023-07-13T14:58:05;18.30;99.90
15947;DHT22;8072;52.554;7.966;2023-07-13T15:00:31;18.30;99.90
15947;DHT22;8072;52.554;7.966;2023-07-13T15:02:58;18.40;99.90
15947;DHT22;8072;52.554;7.966;2023-07-13T15:05:28;18.40;99.90
15947;DHT22;8072;52.554;7.966;2023-07-13T15:07:59;18.50;99.90
15947;DHT22;8072;52.554;7.966;2023-07-13T15:10:28;18.60;99.90
15947;DHT22;8072;52.554;7.966;2023-07-13T15:13:00;18.60;99.90
15947;DHT22;8072;52.554;7.966;2023-07-13T15:15:31;18.60;99.90
15947;DHT22;8072;52.554;7.966;2023-07-13T15:17:59;18.70;99.90
15947;DHT22;8072;52.554;7.966;2023-07-13T15:20:29;18.70;99.90
15947;DHT22;8072;52.554;7.966;2023-07-13T15:22:56;18.70;99.90
15947;DHT22;8072;52.554;7.966;2023-07-13T15:25:27;18.70;99.90
15947;DHT22;8072;52.554;7.966;2023-07-13T15:27:55;18.80;99.90
15947;DHT22;8072;52.554;7.966;2023-07-13T15:30:22;18.90;99.90
15947;DHT22;8072;52.554;7.966;2023-07-13T15:32:48;19.00;99.90
15947;DHT22;8072;52.554;7.966;2023-07-13T15:35:25;19.10;99.90
15947;DHT22;8072;52.554;7.966;2023-07-13T15:37:51;19.20;99.90
15947;DHT22;8072;52.554;7.966;2023-07-13T15:40:17;19.30;99.90
15947;DHT22;8072;52.554;7.966;2023-07-13T15:42:44;19.30;99.90
15947;DHT22;8072;52.554;7.966;2023-07-13T15:47:43;19.30;99.90
15947;DHT22;8072;52.554;7.966;2023-07-13T15:50:32;19.20;99.90
15947;DHT22;8072;52.554;7.966;2023-07-13T15:53:09;19.20;99.90
15947;DHT22;8072;52.554;7.966;2023-07-13T15:55:38;19.10;99.90
15947;DHT22;8072;52.554;7.966;2023-07-13T15:58:04;19.20;99.90
15947;DHT22;8072;52.554;7.966;2023-07-13T16:00:30;19.10;99.90
15947;DHT22;8072;52.554;7.966;2023-07-13T16:02:55;19.10;99.90
15947;DHT22;8072;52.554;7.966;2023-07-13T16:05:22;19.10;99.90
15947;DHT22;8072;52.554;7.966;2023-07-13T16:07:50;19.20;99.90
15947;DHT22;8072;52.554;7.966;2023-07-13T16:10:31;19.20;99.90
15947;DHT22;8072;52.554;7.966;2023-07-13T16:12:58;19.50;99.90
15947;DHT22;8072;52.554;7.966;2023-07-13T16:15:24;19.60;99.90
15947;DHT22;8072;52.554;7.966;2023-07-13T16:17:50;19.80;99.90
15947;DHT22;8072;52.554;7.966;2023-07-13T16:20:17;19.80;99.90
15947;DHT22;8072;52.554;7.966;2023-07-13T16:22:49;19.90;99.90
15947;DHT22;8072;52.554;7.966;2023-07-13T16:25:21;19.90;99.90
15947;DHT22;8072;52.554;7.966;2023-07-13T16:27:50;19.90;99.90
15947;DHT22;8072;52.554;7.966;2023-07-13T16:30:23;20.00;99.90
15947;DHT22;8072;52.554;7.966;2023-07-13T16:32:50;20.10;99.90
15947;DHT22;8072;52.554;7.966;2023-07-13T16:35:23;19.90;99.90
15947;DHT22;8072;52.554;7.966;2023-07-13T16:37:50;19.90;99.90
15947;DHT22;8072;52.554;7.966;2023-07-13T16:40:23;19.90;99.90
15947;DHT22;8072;52.554;7.966;2023-07-13T16:42:55;19.90;99.90